Time;durP1;ratioP1;P1;durP2;ratioP2;P2;SDS_P1;SDS_P2;PMS_P1;PMS_P2;Temp;Humidity;BMP_temperature;BMP_pressure;BME280_temperature;BME280_humidity;BME280_pressure;Samples;Min_cycle;Max_cycle;Signal;HPM_P1;HPM_P2
2022/03/12 00:01:57;;;;;;;;;36.33;27.33;;;;;-3.62;40.40;101125.25;6282402;20;3588753;-50
2022/03/12 00:04:27;;;;;;;;;32.33;24.00;;;;;-3.67;40.06;101129.53;6311932;20;3575257;-49
2022/03/12 00:06:55;;;;;;;;;27.67;23.67;;;;;-3.76;40.02;101123.25;6310306;20;3571124;-51
2022/03/12 00:09:23;;;;;;;;;24.50;18.00;;;;;-3.56;39.89;101120.97;6309333;20;2823236;-51
2022/03/12 00:11:55;;;;;;;;;31.67;23.67;;;;;-3.61;39.60;101124.38;6279177;20;3567093;-49
2022/03/12 00:14:25;;;;;;;;;36.00;23.00;;;;;-3.85;40.43;101122.16;6311606;20;2857572;-48
2022/03/12 00:16:54;;;;;;;;;27.33;24.00;;;;;-3.89;40.60;101113.34;6281427;20;3556508;-47
2022/03/12 00:19:23;;;;;;;;;41.33;28.67;;;;;-4.11;40.64;101108.50;6306897;20;3621072;-50
2022/03/12 00:21:52;;;;;;;;;26.00;24.00;;;;;-4.36;41.52;101112.38;6314510;20;2820131;-49
2022/03/12 00:24:26;;;;;;;;;36.67;26.33;;;;;-3.96;40.45;101114.06;6308502;20;3591908;-48
2022/03/12 00:26:53;;;;;;;;;30.50;22.00;;;;;-3.80;40.16;101113.53;6310119;20;2837797;-50
2022/03/12 00:29:23;;;;;;;;;27.33;25.67;;;;;-3.77;39.90;101105.72;6277970;20;3587835;-49
2022/03/12 00:31:53;;;;;;;;;30.00;24.50;;;;;-3.92;40.43;101109.78;6313710;20;2832610;-47
2022/03/12 00:34:22;;;;;;;;;34.00;24.00;;;;;-4.14;41.22;101104.09;6310251;20;3583580;-50
2022/03/12 00:36:50;;;;;;;;;29.00;23.00;;;;;-3.75;40.41;101098.75;6309298;20;2827521;-50
2022/03/12 00:39:18;;;;;;;;;18.33;17.33;;;;;-4.19;40.57;101110.97;6278524;20;2823425;-51
2022/03/12 00:41:47;;;;;;;;;57.00;45.00;;;;;-4.41;41.94;101114.88;6307727;20;2502353;-54
2022/03/12 00:44:20;;;;;;;;;59.00;50.00;;;;;-4.48;42.10;101108.59;6278194;20;2508630;-49
2022/03/12 00:46:49;;;;;;;;;41.00;33.40;;;;;-4.75;44.35;101105.34;6281067;20;3587723;-51
2022/03/12 00:49:18;;;;;;;;;39.80;32.20;;;;;-4.64;45.25;101107.38;6275478;20;3596106;-52
2022/03/12 00:51:48;;;;;;;;;22.33;14.33;;;;;-4.70;43.64;101107.22;6311502;20;1825344;-51
2022/03/12 00:54:17;;;;;;;;;38.33;23.33;;;;;-4.38;44.30;101106.19;6277413;20;3597119;-52
2022/03/12 00:56:46;;;;;;;;;36.00;25.00;;;;;-4.26;46.24;101098.59;6311265;20;3588786;-53
2022/03/12 00:59:14;;;;;;;;;27.33;25.00;;;;;-4.10;46.55;101094.56;6309365;20;3577050;-53
2022/03/12 01:01:43;;;;;;;;;34.33;26.33;;;;;-4.41;43.45;101097.41;6278306;20;3600254;-53
2022/03/12 01:04:12;;;;;;;;;33.67;27.33;;;;;-4.39;43.01;101100.06;6311303;20;3576308;-51
2022/03/12 01:06:42;;;;;;;;;39.67;27.33;;;;;-4.17;42.54;101092.66;6306960;20;3595184;-49
2022/03/12 01:09:12;;;;;;;;;22.33;21.00;;;;;-4.20;42.63;101089.13;6275939;20;2827686;-52
2022/03/12 01:11:43;;;;;;;;;21.17;21.17;;;;;-3.73;41.75;101095.31;6346816;20;1839997;-49
2022/03/12 01:14:12;;;;;;;;;29.67;22.00;;;;;-4.00;41.97;101086.03;6280216;20;3573265;-51
2022/03/12 01:16:41;;;;;;;;;35.00;27.67;;;;;-4.27;42.79;101096.81;6310065;20;3597198;-48
2022/03/12 01:19:10;;;;;;;;;31.67;24.33;;;;;-4.17;42.62;101095.28;6310394;20;3582522;-51
2022/03/12 01:21:38;;;;;;;;;25.00;22.00;;;;;-4.32;42.75;101093.22;6309559;20;3564918;-51
2022/03/12 01:24:08;;;;;;;;;30.33;26.33;;;;;-4.14;42.21;101096.22;6308180;20;3587861;-52
2022/03/12 01:26:36;;;;;;;;;33.33;25.67;;;;;-4.32;42.77;101107.19;6309156;20;2830583;-51
2022/03/12 01:29:06;;;;;;;;;36.50;32.00;;;;;-4.19;42.40;101100.47;6305287;20;2852333;-50
2022/03/12 01:31:36;;;;;;;;;41.33;32.33;;;;;-4.28;42.45;101114.28;6280088;20;3610663;-50
2022/03/12 01:34:05;;;;;;;;;43.00;31.67;;;;;-3.99;42.70;101124.50;6275476;20;3601387;-51
2022/03/12 01:36:35;;;;;;;;;47.33;39.33;;;;;-4.11;42.32;101126.88;6277335;20;3605529;-50
2022/03/12 01:39:04;;;;;;;;;45.50;37.00;;;;;-4.12;42.55;101118.13;6276968;20;2854412;-52
2022/03/12 01:41:40;;;;;;;;;34.33;24.33;;;;;-4.21;42.54;101126.69;6280213;20;3589827;-50
2022/03/12 01:44:12;;;;;;;;;28.00;25.00;;;;;-4.39;43.55;101120.16;6306916;20;3573268;-50
2022/03/12 01:46:47;;;;;;;;;33.00;23.33;;;;;-4.38;43.08;101125.41;6306701;20;3562744;-51
2022/03/12 01:49:24;;;;;;;;;30.33;22.00;;;;;-4.12;42.63;101122.50;6306123;20;3564829;-48
2022/03/12 01:51:55;;;;;;;;;27.20;19.80;;;;;-4.68;44.22;101121.25;6330956;20;2833615;-49
2022/03/12 01:54:27;;;;;;;;;22.00;21.50;;;;;-4.22;43.04;101127.53;6277238;20;2820095;-49
2022/03/12 01:56:58;;;;;;;;;25.33;19.33;;;;;-4.13;42.92;101124.22;6278682;20;3563790;-51
2022/03/12 01:59:27;;;;;;;;;28.67;16.67;;;;;-4.12;42.87;101122.50;6307949;20;3575286;-52
2022/03/12 02:01:58;;;;;;;;;20.50;16.00;;;;;-4.39;44.24;101117.53;6340271;20;1835818;-50
2022/03/12 02:04:29;;;;;;;;;30.00;18.33;;;;;-4.72;44.90;101116.78;6279530;20;3579432;-50
2022/03/12 02:06:59;;;;;;;;;26.33;21.67;;;;;-5.02;45.53;101113.44;6306913;20;2824546;-49
2022/03/12 02:09:28;;;;;;;;;21.67;15.67;;;;;-4.87;45.57;101108.56;6308153;20;2823162;-50
2022/03/12 02:11:57;;;;;;;;;24.50;21.50;;;;;-4.95;46.37;101120.59;6307378;20;2835782;-50
2022/03/12 02:14:27;;;;;;;;;27.00;23.00;;;;;-4.67;45.21;101123.03;6276047;20;2846115;-49
2022/03/12 02:17:02;;;;;;;;;25.00;21.00;;;;;-4.81;45.64;101116.59;6277809;20;2822160;-46
2022/03/12 02:19:32;;;;;;;;;21.00;19.00;;;;;-4.56;45.40;101119.75;6277571;20;2824186;-51
2022/03/12 02:22:07;;;;;;;;;31.33;22.67;;;;;-3.98;43.66;101123.66;6278985;20;3575389;-51
2022/03/12 02:24:38;;;;;;;;;26.67;19.00;;;;;-4.64;44.79;101128.31;6306501;20;3576341;-51
2022/03/12 02:27:10;;;;;;;;;22.33;19.00;;;;;-4.25;44.15;101131.81;6306547;20;3558590;-50
2022/03/12 02:29:42;;;;;;;;;19.00;18.33;;;;;-4.10;43.80;101140.03;6307245;20;3570002;-53
2022/03/12 02:32:13;;;;;;;;;31.33;22.00;;;;;-4.08;43.59;101134.78;6310007;20;3575218;-51
2022/03/12 02:34:46;;;;;;;;;22.40;18.60;;;;;-4.37;43.67;101135.06;6330391;20;2835674;-51
2022/03/12 02:37:28;;;;;;;;;23.60;17.60;;;;;-4.39;44.62;101144.63;6298680;20;2833866;-47
2022/03/12 02:40:09;;;;;;;;;26.00;24.00;;;;;-4.43;44.41;101142.78;6276028;20;2825335;-51
2022/03/12 02:42:40;;;;;;;;;24.20;17.60;;;;;-4.37;44.73;101137.69;6300372;20;2825320;-53
2022/03/12 02:45:09;;;;;;;;;25.00;21.00;;;;;-4.78;45.77;101140.22;6278226;20;2814254;-51
2022/03/12 02:47:43;;;;;;;;;24.33;19.00;;;;;-4.60;46.17;101133.66;6274608;20;3565848;-52
2022/03/12 02:50:14;;;;;;;;;18.50;18.00;;;;;-4.22;44.65;101132.75;6307478;20;2831498;-51
2022/03/12 02:52:44;;;;;;;;;31.00;21.00;;;;;-4.27;44.30;101129.16;6278721;20;3584629;-47
2022/03/12 02:55:19;;;;;;;;;29.33;18.00;;;;;-4.55;45.05;101124.19;6306680;20;2855568;-53
2022/03/12 02:57:49;;;;;;;;;30.67;22.33;;;;;-4.53;45.60;101125.06;6306481;20;3589245;-49
2022/03/12 03:00:20;;;;;;;;;27.33;24.00;;;;;-4.73;45.79;101125.50;6306746;20;2822255;-52
2022/03/12 03:02:53;;;;;;;;;25.00;21.67;;;;;-4.53;44.83;101127.69;6308647;20;2819017;-49
2022/03/12 03:05:44;;;;;;;;;24.20;24.00;;;;;-4.67;44.92;101122.13;6330915;20;2826326;-49
2022/03/12 03:08:20;;;;;;;;;23.60;19.00;;;;;-4.38;44.64;101130.66;6301771;20;2817057;-49
2022/03/12 03:10:58;;;;;;;;;33.00;22.00;;;;;-4.37;44.44;101137.69;6277776;20;3597195;-51
2022/03/12 03:13:44;;;;;;;;;30.00;25.00;;;;;-4.65;45.09;101134.44;6303983;20;3566004;-52
2022/03/12 03:16:21;;;;;;;;;27.00;21.00;;;;;-4.70;45.30;101138.69;6309012;20;3558582;-49
2022/03/12 03:18:53;;;;;;;;;24.33;20.33;;;;;-4.73;45.49;101135.09;6308023;20;3572128;-53
2022/03/12 03:21:25;;;;;;;;;21.00;19.00;;;;;-4.94;45.72;101148.56;6304329;20;2829429;-53
2022/03/12 03:23:54;;;;;;;;;29.00;20.00;;;;;-4.55;45.32;101138.16;6274209;20;2837993;-50
2022/03/12 03:26:40;;;;;;;;;27.00;15.00;;;;;-4.93;46.13;101142.47;6274108;20;2838210;-48
2022/03/12 03:29:10;;;;;;;;;19.80;15.60;;;;;-4.43;45.19;101132.28;6299652;20;2831494;-46
2022/03/12 03:31:38;;;;;;;;;15.50;15.00;;;;;-4.51;44.88;101137.34;6275498;20;2821243;-49
2022/03/12 03:34:06;;;;;;;;;24.00;19.00;;;;;-4.21;44.00;101134.56;6274967;20;2844062;-52
2022/03/12 03:36:37;;;;;;;;;18.00;15.60;;;;;-4.66;45.27;101130.06;6297915;20;2831574;-48
2022/03/12 03:39:06;;;;;;;;;20.00;12.00;;;;;-4.70;45.89;101133.44;6291941;20;1836836;-52
2022/03/12 03:41:34;;;;;;;;;16.00;15.00;;;;;-4.71;46.00;101142.16;6306690;20;2817953;-50
2022/03/12 03:44:05;;;;;;;;;33.33;25.67;;;;;-4.97;47.13;101143.25;6271691;20;2844054;-49
2022/03/12 03:46:36;;;;;;;;;24.00;15.60;;;;;-4.78;47.14;101150.72;6330269;20;2833607;-47
2022/03/12 03:49:07;;;;;;;;;31.33;26.83;;;;;-4.85;46.85;101143.53;6297312;20;2860728;-48
2022/03/12 03:51:42;;;;;;;;;33.17;27.67;;;;;-5.31;48.79;101152.84;6328707;20;2841945;-44
2022/03/12 03:54:13;;;;;;;;;32.33;22.00;;;;;-5.39;49.18;101149.16;6306894;20;2836712;-51
2022/03/12 03:56:41;;;;;;;;;26.00;22.00;;;;;-5.19;48.83;101152.28;6304534;20;2826289;-50
2022/03/12 03:59:11;;;;;;;;;29.67;22.67;;;;;-5.55;49.51;101153.09;6276329;20;3571053;-50
2022/03/12 04:01:41;;;;;;;;;31.67;28.67;;;;;-5.26;49.01;101148.63;6311694;20;3586349;-49
2022/03/12 04:04:13;;;;;;;;;27.67;21.00;;;;;-5.57;49.75;101144.31;6311950;20;3566882;-49
2022/03/12 04:06:42;;;;;;;;;30.00;22.00;;;;;-5.03;48.27;101145.69;6309274;20;3569212;-45
2022/03/12 04:09:11;;;;;;;;;30.00;19.00;;;;;-5.21;49.38;101149.63;6311661;20;3602413;-46
2022/03/12 04:11:42;;;;;;;;;34.00;21.33;;;;;-5.24;49.04;101162.66;6310022;20;3576251;-45
2022/03/12 04:14:11;;;;;;;;;31.00;21.00;;;;;-5.58;50.34;101166.97;6310910;20;3593950;-46
2022/03/12 04:16:44;;;;;;;;;24.00;21.33;;;;;-5.29;49.79;101161.66;6309771;20;3557130;-46
2022/03/12 04:19:14;;;;;;;;;22.00;13.00;;;;;-5.46;49.23;101158.56;6310738;20;2799219;-50
2022/03/12 04:21:42;;;;;;;;;19.00;18.00;;;;;-5.24;49.09;101156.50;6278735;20;2839829;-48
2022/03/12 04:24:13;;;;;;;;;30.00;18.33;;;;;-4.90;48.08;101156.53;6278915;20;3569045;-53
2022/03/12 04:26:44;;;;;;;;;26.86;21.43;;;;;-4.93;48.43;101158.19;6342035;20;1846803;-51
2022/03/12 04:29:13;;;;;;;;;42.67;27.00;;;;;-5.04;48.37;101162.28;6309869;20;3598229;-48
2022/03/12 04:31:43;;;;;;;;;24.00;16.40;;;;;-5.07;48.59;101158.72;6333079;20;2833583;-53
2022/03/12 04:34:15;;;;;;;;;34.83;24.00;;;;;-5.04;48.33;101157.91;6302273;20;2845328;-52
2022/03/12 04:36:43;;;;;;;;;26.00;21.00;;;;;-5.04;48.05;101152.69;6309906;20;2839824;-46
2022/03/12 04:39:12;;;;;;;;;29.80;23.80;;;;;-5.19;48.48;101150.53;6298267;20;2841915;-52
2022/03/12 04:41:42;;;;;;;;;37.00;22.00;;;;;-5.20;48.13;101140.94;6278752;20;3597087;-50
2022/03/12 04:44:10;;;;;;;;;22.00;16.00;;;;;-5.40;48.38;101152.59;6309985;20;2829498;-50
2022/03/12 04:46:40;;;;;;;;;24.00;21.40;;;;;-4.83;47.33;101159.31;6305536;20;2829437;-51
2022/03/12 04:49:10;;;;;;;;;29.17;15.83;;;;;-4.91;47.44;101159.13;6316294;20;1835787;-51
2022/03/12 04:51:43;;;;;;;;;37.67;26.67;;;;;-4.73;47.25;101154.31;6277570;20;3600241;-50
2022/03/12 04:54:11;;;;;;;;;46.00;36.00;;;;;-5.17;48.34;101148.84;6305648;20;2502386;-50
2022/03/12 04:56:39;;;;;;;;;50.50;38.00;;;;;-5.54;49.22;101165.31;6279881;20;2862740;-52
2022/03/12 04:59:07;;;;;;;;;35.33;28.00;;;;;-5.59;50.67;101164.31;6278186;20;3578379;-50
2022/03/12 05:01:36;;;;;;;;;38.67;29.33;;;;;-5.74;51.82;101164.75;6308842;20;3595605;-52
2022/03/12 05:04:05;;;;;;;;;35.67;26.00;;;;;-5.52;51.61;101167.13;6275365;20;3601447;-53
2022/03/12 05:06:34;;;;;;;;;45.60;34.80;;;;;-5.80;51.76;101167.19;6308077;20;3621184;-52
2022/03/12 05:09:04;;;;;;;;;54.33;42.67;;;;;-5.59;51.13;101167.78;6273265;20;3626463;-52
2022/03/12 05:11:38;;;;;;;;;51.00;45.00;;;;;-5.43;51.29;101173.47;6271945;20;2502344;-51
2022/03/12 05:14:10;;;;;;;;;52.00;39.50;;;;;-5.66;51.99;101171.13;6277762;20;2872403;-51
2022/03/12 05:16:38;;;;;;;;;44.50;32.50;;;;;-5.53;52.12;101169.69;6278933;20;2874239;-52
2022/03/12 05:19:07;;;;;;;;;42.33;33.67;;;;;-5.35;50.91;101179.78;6278880;20;3601330;-50
2022/03/12 05:21:35;;;;;;;;;42.67;27.00;;;;;-5.44;50.68;101176.94;6280123;20;3612704;-50
2022/03/12 05:24:05;;;;;;;;;37.00;31.00;;;;;-5.45;51.49;101183.00;6274852;20;3598138;-48
2022/03/12 05:26:33;;;;;;;;;37.00;30.00;;;;;-5.39;50.77;101180.56;6272907;20;2853374;-50
2022/03/12 05:29:01;;;;;;;;;33.67;28.00;;;;;-5.08;51.02;101177.91;6277613;20;3594073;-50
2022/03/12 05:31:29;;;;;;;;;30.50;28.50;;;;;-4.74;49.73;101178.78;6311486;20;2844789;-53
2022/03/12 05:33:57;;;;;;;;;27.50;25.00;;;;;-4.29;47.50;101178.06;6276094;20;2826845;-53
2022/03/12 05:36:26;;;;;;;;;61.00;47.20;;;;;-4.02;46.67;101182.16;6277223;20;3619038;-50
2022/03/12 05:38:55;;;;;;;;;75.50;50.00;;;;;-3.95;45.97;101189.28;6275893;20;2866026;-48
2022/03/12 05:41:23;;;;;;;;;70.00;52.00;;;;;-3.62;46.37;101185.63;6279592;20;2872110;-47
2022/03/12 05:43:52;;;;;;;;;68.50;46.50;;;;;-3.64;45.89;101190.81;6271510;20;2495054;-50
2022/03/12 05:46:21;;;;;;;;;39.67;27.00;;;;;-3.49;45.29;101185.00;6279965;20;3613767;-47
2022/03/12 05:48:50;;;;;;;;;44.50;34.50;;;;;-3.47;45.42;101183.31;6272706;20;2500324;-51
2022/03/12 05:51:18;;;;;;;;;44.50;41.00;;;;;-3.05;44.93;101177.09;6272461;20;2500343;-50
2022/03/12 05:53:48;;;;;;;;;42.50;28.00;;;;;-2.38;43.10;101187.81;6279040;20;2873219;-51
2022/03/12 05:56:17;;;;;;;;;61.00;49.00;;;;;-1.50;40.82;101194.25;6279744;20;2832567;-51
2022/03/12 05:58:45;;;;;;;;;43.00;36.00;;;;;-1.65;40.45;101197.59;6275442;20;2500402;-46
2022/03/12 06:01:13;;;;;;;;;45.50;34.50;;;;;-1.16;40.41;101199.06;6272547;20;2500267;-48
2022/03/12 06:03:41;;;;;;;;;50.00;37.50;;;;;-0.73;39.60;101196.84;6278513;20;2858602;-48
2022/03/12 06:06:09;;;;;;;;;39.50;33.00;;;;;-0.72;38.82;101210.91;6277303;20;2500293;-49
2022/03/12 06:08:38;;;;;;;;;47.00;38.50;;;;;-0.38;38.78;101200.63;6277530;20;2866949;-47
2022/03/12 06:11:07;;;;;;;;;51.00;39.00;;;;;0.02;37.77;101204.41;6278921;20;2880544;-51
2022/03/12 06:13:35;;;;;;;;;26.00;26.00;;;;;-0.39;37.88;101196.25;6276262;20;2506512;-49
2022/03/12 06:16:04;;;;;;;;;22.00;21.33;;;;;-1.02;39.21;101195.69;6278921;20;3549239;-48
2022/03/12 06:18:36;;;;;;;;;28.67;23.33;;;;;-1.22;40.33;101212.16;6308289;20;3569036;-52
2022/03/12 06:21:07;;;;;;;;;26.00;20.67;;;;;-0.92;39.91;101211.59;6307556;20;3552303;-51
2022/03/12 06:23:36;;;;;;;;;58.00;47.00;;;;;-0.86;39.55;101218.69;6308508;20;2877342;-50
2022/03/12 06:26:12;;;;;;;;;32.50;23.00;;;;;-1.15;40.71;101215.75;6276690;20;2848249;-51
2022/03/12 06:28:43;;;;;;;;;34.67;29.00;;;;;-0.86;41.54;101213.41;6276673;20;3600275;-50
2022/03/12 06:31:15;;;;;;;;;38.50;28.50;;;;;-0.72;40.44;101221.44;6276882;20;2860771;-50
2022/03/12 06:33:43;;;;;;;;;32.00;26.50;;;;;-0.88;40.65;101216.03;6276119;20;2854466;-49
2022/03/12 06:36:13;;;;;;;;;19.33;18.67;;;;;-1.07;41.98;101221.13;6277134;20;2834732;-51
2022/03/12 06:38:41;;;;;;;;;19.00;10.25;;;;;-0.99;42.51;101222.06;6323455;20;1817980;-51
2022/03/12 06:41:10;;;;;;;;;24.67;24.67;;;;;-1.31;42.94;101224.38;6306022;20;3564910;-49
2022/03/12 06:43:42;;;;;;;;;13.67;13.67;;;;;-0.63;43.75;101228.56;6306793;20;2811763;-49
2022/03/12 06:46:14;;;;;;;;;20.00;14.00;;;;;-0.70;41.96;101240.81;6310456;20;2827378;-51
2022/03/12 06:48:46;;;;;;;;;20.40;15.20;;;;;-0.93;42.14;101238.81;6303062;20;2823217;-49
2022/03/12 06:51:16;;;;;;;;;17.67;17.67;;;;;-0.49;42.12;101243.66;6278086;20;3561686;-54
2022/03/12 06:53:44;;;;;;;;;24.00;16.33;;;;;-0.46;42.12;101242.78;6311274;20;3568967;-49
2022/03/12 06:56:13;;;;;;;;;14.00;9.50;;;;;-0.16;40.57;101243.88;6329113;20;1846229;-48
2022/03/12 06:58:42;;;;;;;;;21.33;11.00;;;;;-0.16;41.00;101247.41;6311437;20;3566933;-47
2022/03/12 07:01:13;;;;;;;;;19.14;13.43;;;;;0.13;40.81;101246.72;6347847;20;1827368;-47
2022/03/12 07:03:42;;;;;;;;;19.00;17.00;;;;;0.69;39.63;101247.91;6311789;20;2702312;-46
2022/03/12 07:06:12;;;;;;;;;15.40;15.00;;;;;0.51;40.07;101246.94;6299289;20;2821131;-45
2022/03/12 07:08:40;;;;;;;;;25.33;17.33;;;;;0.22;39.87;101247.69;6278458;20;3561682;-45
2022/03/12 07:11:11;;;;;;;;;19.33;13.33;;;;;0.58;39.42;101240.81;6309256;20;2819029;-45
2022/03/12 07:13:41;;;;;;;;;22.00;16.40;;;;;1.86;37.57;101241.03;6334152;20;2840870;-44
2022/03/12 07:16:11;;;;;;;;;19.80;14.40;;;;;3.20;35.26;101257.38;6304558;20;2813805;-44
2022/03/12 07:18:40;;;;;;;;;20.67;17.00;;;;;4.10;34.63;101248.66;6278085;20;3562831;-43
2022/03/12 07:21:09;;;;;;;;;23.40;13.00;;;;;3.22;34.43;101244.97;6334558;20;2835722;-44
2022/03/12 07:23:37;;;;;;;;;20.50;16.50;;;;;2.52;37.35;101259.44;6276616;20;2820139;-44
2022/03/12 07:26:05;;;;;;;;;12.50;8.00;;;;;1.15;37.17;101253.34;6277572;20;2769519;-46
2022/03/12 07:28:33;;;;;;;;;21.50;12.00;;;;;1.81;36.99;101256.03;6306379;20;2810756;-46
2022/03/12 07:31:03;;;;;;;;;18.67;17.00;;;;;2.22;37.63;101252.47;6279707;20;2823359;-47
2022/03/12 07:33:34;;;;;;;;;18.00;15.71;;;;;1.01;36.71;101250.66;6344548;20;1827398;-45
2022/03/12 07:36:04;;;;;;;;;15.00;13.00;;;;;1.35;36.94;101248.09;6329924;20;1834779;-45
2022/03/12 07:38:34;;;;;;;;;17.20;13.20;;;;;0.96;37.92;101242.72;6336907;20;2800253;-46
2022/03/12 07:41:03;;;;;;;;;14.25;10.25;;;;;1.10;37.94;101245.38;6300642;20;1827430;-45
2022/03/12 07:43:39;;;;;;;;;17.33;15.00;;;;;1.73;37.18;101251.63;6308411;20;3541470;-45
2022/03/12 07:46:08;;;;;;;;;25.33;19.00;;;;;1.82;36.68;101252.50;6312364;20;3562804;-48
2022/03/12 07:48:37;;;;;;;;;28.33;21.00;;;;;2.00;36.60;101241.00;6314959;20;3582617;-44
2022/03/12 07:51:09;;;;;;;;;21.40;20.80;;;;;2.15;36.58;101246.28;6304559;20;2829554;-46
2022/03/12 07:53:37;;;;;;;;;15.50;12.00;;;;;2.39;35.59;101246.22;6284205;20;2784728;-44
2022/03/12 07:56:07;;;;;;;;;16.50;8.00;;;;;2.48;35.59;101244.44;6282396;20;2782543;-45
2022/03/12 07:58:37;;;;;;;;;19.00;14.33;;;;;2.79;35.08;101253.13;6280460;20;2821313;-47
2022/03/12 08:01:08;;;;;;;;;11.00;9.00;;;;;2.61;34.56;101241.75;6312423;20;2766363;-46
2022/03/12 08:03:36;;;;;;;;;20.00;16.50;;;;;2.38;34.92;101244.47;6317346;20;2825269;-47
2022/03/12 08:06:09;;;;;;;;;12.00;12.00;;;;;2.04;34.77;101238.34;6279798;20;2785683;-48
2022/03/12 08:08:38;;;;;;;;;20.00;19.00;;;;;2.82;34.53;101235.47;6282196;20;2811749;-44
2022/03/12 08:11:28;;;;;;;;;15.00;11.00;;;;;3.81;33.56;101238.31;6315509;20;2789836;-48
2022/03/12 08:14:09;;;;;;;;;15.67;13.00;;;;;2.94;33.59;101236.28;6280592;20;2817083;-45
2022/03/12 08:16:38;;;;;;;;;16.40;15.20;;;;;2.60;33.92;101241.72;6335637;20;2823226;-50
2022/03/12 08:19:08;;;;;;;;;15.00;11.00;;;;;3.66;33.37;101235.78;6281413;20;2798231;-47
2022/03/12 08:21:37;;;;;;;;;27.33;17.67;;;;;3.60;32.96;101236.72;6281112;20;3565908;-50
2022/03/12 08:24:15;;;;;;;;;13.33;13.33;;;;;2.93;34.20;101235.41;6312308;20;2812810;-44
2022/03/12 08:26:47;;;;;;;;;24.33;15.33;;;;;4.28;32.86;101241.41;6313128;20;3566944;-46
2022/03/12 08:29:18;;;;;;;;;17.00;17.00;;;;;4.22;31.43;101246.81;6313248;20;3558068;-47
2022/03/12 08:31:47;;;;;;;;;19.50;16.50;;;;;4.02;31.29;101242.56;6316220;20;2823284;-47
2022/03/12 08:34:16;;;;;;;;;17.40;16.80;;;;;3.40;31.61;101241.31;6303587;20;2822131;-45
2022/03/12 08:36:45;;;;;;;;;18.00;16.33;;;;;4.23;31.68;101243.25;6281830;20;3556510;-43
2022/03/12 08:39:15;;;;;;;;;17.00;16.33;;;;;4.00;31.26;101240.81;6310975;20;3556499;-45
2022/03/12 08:41:45;;;;;;;;;21.00;17.67;;;;;4.03;31.21;101239.03;6311470;20;3553362;-45
2022/03/12 08:44:13;;;;;;;;;18.00;15.00;;;;;3.99;31.18;101250.56;6313093;20;2819113;-44
2022/03/12 08:46:42;;;;;;;;;23.00;19.00;;;;;4.58;29.85;101257.03;6282205;20;2830483;-47
2022/03/12 08:49:11;;;;;;;;;20.33;15.00;;;;;4.70;29.06;101257.78;6278361;20;3544010;-46
2022/03/12 08:51:41;;;;;;;;;20.33;15.33;;;;;4.93;27.86;101247.72;6315511;20;3562797;-44
2022/03/12 08:54:10;;;;;;;;;14.00;14.00;;;;;4.94;29.37;101249.47;6314618;20;2804621;-50
2022/03/12 08:56:39;;;;;;;;;16.67;14.67;;;;;4.64;29.71;101239.25;6279796;20;3543072;-47
2022/03/12 08:59:09;;;;;;;;;18.40;14.00;;;;;5.19;28.01;101243.84;6338066;20;2816939;-45
2022/03/12 09:01:43;;;;;;;;;13.83;9.00;;;;;4.64;27.43;101249.88;6324579;20;1819135;-47
2022/03/12 09:04:12;;;;;;;;;10.00;10.00;;;;;4.91;26.97;101246.88;6283483;20;2792162;-45
2022/03/12 09:06:42;;;;;;;;;48.25;39.00;;;;;4.53;28.34;101242.00;6303599;20;2747123;-44
2022/03/12 09:09:12;;;;;;;;;16.67;12.67;;;;;5.14;27.45;101235.03;6278772;20;3532580;-44
2022/03/12 09:11:41;;;;;;;;;18.67;16.00;;;;;5.26;27.72;101242.81;6314724;20;2833714;-46
2022/03/12 09:14:10;;;;;;;;;14.67;14.00;;;;;5.31;27.99;101242.75;6313409;20;3542970;-47
2022/03/12 09:16:38;;;;;;;;;14.00;11.00;;;;;5.56;27.53;101238.81;6308683;20;2790021;-44
2022/03/12 09:19:08;;;;;;;;;13.33;13.33;;;;;5.54;27.09;101229.09;6276749;20;2814886;-49
2022/03/12 09:21:37;;;;;;;;;17.00;15.67;;;;;5.04;27.26;101223.63;6312238;20;3543115;-46
2022/03/12 09:24:07;;;;;;;;;13.20;10.00;;;;;4.86;27.10;101227.41;6336413;20;2784634;-47
2022/03/12 09:26:35;;;;;;;;;13.00;9.00;;;;;5.48;26.29;101225.63;6281462;20;2764870;-43
2022/03/12 09:29:04;;;;;;;;;17.00;13.00;;;;;5.12;27.27;101228.84;6309374;20;2802407;-47
2022/03/12 09:31:31;;;;;;;;;4.33;3.00;;;;;5.46;26.29;101227.44;6282282;20;3462027;-44
2022/03/12 09:34:02;;;;;;;;;14.00;14.00;;;;;5.34;25.98;101216.06;6277668;20;2809672;-46
2022/03/12 09:36:30;;;;;;;;;14.50;13.50;;;;;6.02;25.65;101227.41;6281271;20;2786946;-44
2022/03/12 09:38:59;;;;;;;;;18.50;13.00;;;;;5.26;26.22;101222.41;6277909;20;2820067;-44
2022/03/12 09:41:28;;;;;;;;;15.33;12.00;;;;;5.86;26.26;101218.75;6279910;20;2805651;-44
2022/03/12 09:43:57;;;;;;;;;12.00;10.50;;;;;6.04;25.65;101217.59;6308452;20;2780544;-44
2022/03/12 09:46:27;;;;;;;;;20.00;13.20;;;;;5.62;26.11;101219.19;6304044;20;2807597;-45
2022/03/12 09:48:59;;;;;;;;;17.67;14.67;;;;;6.08;25.77;101221.06;6324878;20;1817988;-46
2022/03/12 09:51:29;;;;;;;;;14.80;13.00;;;;;5.78;25.83;101220.69;6332579;20;2810808;-45
2022/03/12 09:53:59;;;;;;;;;42.50;37.00;;;;;5.99;25.95;101210.59;6278847;20;2873202;-45
2022/03/12 09:56:27;;;;;;;;;30.00;24.00;;;;;5.62;25.69;101213.88;6278994;20;2489868;-46
2022/03/12 09:58:55;;;;;;;;;11.00;10.00;;;;;5.92;25.48;101200.03;6277603;20;2785678;-45
2022/03/12 10:01:23;;;;;;;;;14.00;14.00;;;;;6.28;25.51;101210.91;6280085;20;2793133;-47
2022/03/12 10:03:52;;;;;;;;;13.00;11.33;;;;;5.64;25.91;101204.06;6281399;20;2788795;-45
2022/03/12 10:06:20;;;;;;;;;19.00;15.00;;;;;6.12;25.10;101204.13;6310461;20;2816163;-45
2022/03/12 10:08:48;;;;;;;;;18.00;12.00;;;;;5.39;24.79;101193.78;6280732;20;2792987;-46
2022/03/12 10:11:17;;;;;;;;;27.50;21.00;;;;;5.88;25.43;101200.09;6279476;20;2846130;-49
2022/03/12 10:13:45;;;;;;;;;28.00;21.00;;;;;6.56;25.23;101202.38;6280435;20;2837758;-48
2022/03/12 10:16:14;;;;;;;;;16.00;12.00;;;;;5.99;25.42;101199.94;6280724;20;2800364;-46
2022/03/12 10:18:46;;;;;;;;;25.17;20.83;;;;;5.88;25.89;101194.75;6302316;20;2833728;-47
2022/03/12 10:21:16;;;;;;;;;23.33;18.00;;;;;5.68;25.94;101184.44;6309545;20;3543457;-51
2022/03/12 10:23:45;;;;;;;;;30.67;28.33;;;;;5.03;26.46;101184.63;6311633;20;3577347;-46
2022/03/12 10:26:14;;;;;;;;;18.80;14.00;;;;;6.22;26.32;101186.16;6301839;20;2812746;-45
2022/03/12 10:28:44;;;;;;;;;20.00;20.00;;;;;6.00;25.74;101191.00;6280423;20;3566871;-44
2022/03/12 10:31:15;;;;;;;;;21.50;11.50;;;;;5.98;25.59;101184.81;6309190;20;2810044;-46
2022/03/12 10:33:43;;;;;;;;;14.50;11.00;;;;;6.50;25.24;101189.16;6278021;20;2796107;-44
2022/03/12 10:36:16;;;;;;;;;14.00;11.00;;;;;5.98;25.30;101191.06;6280386;20;2786740;-45
2022/03/12 10:38:49;;;;;;;;;13.00;10.00;;;;;5.48;25.17;101175.00;6296186;20;1817061;-44
2022/03/12 10:41:18;;;;;;;;;14.50;11.50;;;;;5.65;25.76;101173.84;6311184;20;2785667;-44
2022/03/12 10:43:54;;;;;;;;;18.50;12.00;;;;;5.47;25.29;101172.38;6280348;20;2797140;-45
2022/03/12 10:46:28;;;;;;;;;26.00;19.67;;;;;6.69;24.69;101171.84;6280772;20;3564902;-44
2022/03/12 10:48:59;;;;;;;;;14.00;12.00;;;;;6.25;24.73;101170.09;6278798;20;2789855;-45
2022/03/12 10:51:39;;;;;;;;;14.00;12.50;;;;;7.04;25.08;101170.19;6278673;20;2798179;-47
2022/03/12 10:54:20;;;;;;;;;11.75;10.00;;;;;6.55;24.33;101172.13;6300928;20;2813886;-43
2022/03/12 10:56:51;;;;;;;;;12.00;10.00;;;;;5.89;24.33;101160.06;6310774;20;2781511;-47
2022/03/12 10:59:26;;;;;;;;;16.40;10.80;;;;;4.93;24.93;101161.69;6303384;20;2804561;-46
2022/03/12 11:02:05;;;;;;;;;10.00;8.00;;;;;5.58;24.89;101153.53;6277657;20;2759656;-45
2022/03/12 11:04:37;;;;;;;;;11.50;10.50;;;;;5.69;25.10;101156.91;6275609;20;2794030;-47
2022/03/12 11:07:27;;;;;;;;;14.00;12.00;;;;;6.77;25.13;101159.22;6279031;20;2789887;-45
2022/03/12 11:09:58;;;;;;;;;14.86;11.57;;;;;6.34;25.07;101149.44;6314064;20;1816980;-48
2022/03/12 11:12:36;;;;;;;;;13.00;10.00;;;;;6.62;24.38;101143.53;6309247;20;2790959;-46